Time;durP1;ratioP1;P1;durP2;ratioP2;P2;SDS_P1;SDS_P2;PMS_P1;PMS_P2;Temp;Humidity;BMP_temperature;BMP_pressure;BME280_temperature;BME280_humidity;BME280_pressure;Samples;Min_cycle;Max_cycle;Signal;HPM_P1;HPM_P2
2022/07/12 00:00:17;;;;;;;;;;;;;;;15.48;67.30;98674.19;4975023;28;20422;-76
2022/07/12 00:02:45;;;;;;;;;;;;;;;15.50;67.16;98674.69;4989050;28;19932;-76
2022/07/12 00:05:13;;;;;;;;;;;;;;;15.51;67.15;98681.75;5002943;28;19961;-75
2022/07/12 00:07:41;;;;;;;;;;;;;;;15.53;66.89;98678.69;4984863;28;20016;-75
2022/07/12 00:10:09;;;;;;;;;;;;;;;15.48;67.12;98674.19;4991247;28;19984;-75
2022/07/12 00:12:39;;;;;;;;;;;;;;;15.43;67.35;98682.56;5008930;28;19933;-74
2022/07/12 00:15:07;;;;;;;;;;;;;;;15.46;66.94;98674.50;4994061;28;19981;-75
2022/07/12 00:17:35;;;;;;;;;;;;;;;15.49;66.82;98678.53;4997541;28;20447;-75
2022/07/12 00:20:04;;;;;;;;;;;;;;;15.45;66.88;98675.66;5000141;28;20020;-75
2022/07/12 00:22:32;;;;;;;;;;;;;;;15.38;67.16;98669.84;4992539;28;19926;-75
2022/07/12 00:25:00;;;;;;;;;;;;;;;15.33;67.33;98666.47;4993206;28;20438;-75
2022/07/12 00:27:28;;;;;;;;;;;;;;;15.27;67.62;98668.56;4992793;28;19929;-75
2022/07/12 00:29:57;;;;;;;;;;;;;;;15.31;67.82;98677.75;5001134;28;20406;-75
2022/07/12 00:32:25;;;;;;;;;;;;;;;15.30;67.51;98667.13;4994444;28;19926;-76
2022/07/12 00:34:53;;;;;;;;;;;;;;;15.25;67.62;98665.34;4991231;28;20451;-75
2022/07/12 00:40:12;;;;;;;;;;;;;;;15.29;67.50;98671.00;4992893;28;20098;-75
2022/07/12 00:42:40;;;;;;;;;;;;;;;15.27;67.77;98657.63;4975844;28;19930;-75
2022/07/12 00:45:10;;;;;;;;;;;;;;;15.32;67.34;98659.38;4963940;28;19932;-75
2022/07/12 00:47:40;;;;;;;;;;;;;;;15.40;67.21;98669.53;5006457;28;19956;-75
2022/07/12 00:50:09;;;;;;;;;;;;;;;15.31;67.38;98663.25;4992308;28;20018;-76
2022/07/12 00:52:37;;;;;;;;;;;;;;;15.36;67.05;98663.91;4992538;28;19933;-76
2022/07/12 00:55:05;;;;;;;;;;;;;;;15.32;67.26;98668.41;5008301;28;19926;-76
2022/07/12 00:57:33;;;;;;;;;;;;;;;15.32;67.14;98675.81;4986843;28;19929;-76
2022/07/12 01:00:01;;;;;;;;;;;;;;;15.14;67.83;98675.81;5007577;28;21012;-76
2022/07/12 01:02:31;;;;;;;;;;;;;;;15.14;67.80;98662.16;4988375;28;20732;-75
2022/07/12 01:04:58;;;;;;;;;;;;;;;15.08;68.03;98663.44;4989936;28;19926;-75
2022/07/12 01:07:27;;;;;;;;;;;;;;;15.09;67.96;98666.97;4993156;28;20016;-76
2022/07/12 01:10:21;;;;;;;;;;;;;;;15.10;68.13;98672.13;5003387;28;19926;-76
2022/07/12 01:12:49;;;;;;;;;;;;;;;15.14;67.70;98675.03;4992921;28;19933;-76
2022/07/12 01:15:18;;;;;;;;;;;;;;;15.05;68.14;98672.28;4974302;28;19955;-76
2022/07/12 01:17:47;;;;;;;;;;;;;;;14.96;68.35;98674.19;4996313;28;19925;-76
2022/07/12 01:20:20;;;;;;;;;;;;;;;14.89;68.37;98671.94;4983603;28;20665;-76
2022/07/12 01:22:52;;;;;;;;;;;;;;;14.88;68.51;98672.28;4969602;28;19969;-76
2022/07/12 01:25:20;;;;;;;;;;;;;;;14.79;68.66;98668.72;5013661;28;19975;-76
2022/07/12 01:27:48;;;;;;;;;;;;;;;14.75;68.90;98684.16;4976092;28;19968;-75
2022/07/12 01:30:16;;;;;;;;;;;;;;;14.71;69.03;98677.75;4991061;28;20053;-76
2022/07/12 01:32:44;;;;;;;;;;;;;;;14.70;68.87;98676.09;4991923;28;20009;-76
2022/07/12 01:35:13;;;;;;;;;;;;;;;14.66;69.09;98671.28;4992643;28;20016;-75
2022/07/12 01:37:41;;;;;;;;;;;;;;;14.69;68.98;98678.03;4979415;28;19934;-76
2022/07/12 01:40:11;;;;;;;;;;;;;;;14.70;68.77;98674.19;4972487;28;19926;-76
2022/07/12 01:42:39;;;;;;;;;;;;;;;14.69;68.82;98675.31;5006462;28;19925;-76
2022/07/12 01:45:08;;;;;;;;;;;;;;;14.65;69.08;98666.94;4994371;28;19938;-76
2022/07/12 01:47:37;;;;;;;;;;;;;;;14.58;69.26;98674.81;4986483;28;20452;-75
2022/07/12 01:50:05;;;;;;;;;;;;;;;14.54;69.40;98670.28;4972856;28;20024;-75
2022/07/12 01:52:33;;;;;;;;;;;;;;;14.49;69.65;98670.44;4991870;28;19996;-75
2022/07/12 01:55:01;;;;;;;;;;;;;;;14.41;69.75;98667.34;4974340;28;19926;-76
2022/07/12 01:57:32;;;;;;;;;;;;;;;14.38;69.67;98673.47;4987319;28;20363;-76
2022/07/12 02:00:00;;;;;;;;;;;;;;;14.38;69.81;98673.47;4992443;28;19926;-75
2022/07/12 02:02:28;;;;;;;;;;;;;;;14.33;70.18;98672.81;4993079;28;20666;-76
2022/07/12 02:04:56;;;;;;;;;;;;;;;14.35;70.08;98670.53;4993168;28;20031;-75
2022/07/12 02:07:24;;;;;;;;;;;;;;;14.29;70.26;98677.28;5001973;28;19966;-75
2022/07/12 02:09:52;;;;;;;;;;;;;;;14.25;70.51;98676.31;4994425;28;19925;-75
2022/07/12 02:12:20;;;;;;;;;;;;;;;14.22;70.37;98680.47;4990625;28;19976;-75
2022/07/12 02:14:50;;;;;;;;;;;;;;;14.21;70.56;98675.31;5008915;28;19926;-75
2022/07/12 02:17:20;;;;;;;;;;;;;;;14.25;70.60;98681.75;4991743;28;19953;-75
2022/07/12 02:19:58;;;;;;;;;;;;;;;14.23;70.69;98679.34;4991157;28;20081;-75
2022/07/12 02:22:27;;;;;;;;;;;;;;;14.20;70.56;98673.72;4974190;28;20452;-75
2022/07/12 02:24:55;;;;;;;;;;;;;;;14.17;70.60;98680.63;4990695;28;19925;-75
2022/07/12 02:27:23;;;;;;;;;;;;;;;14.15;70.60;98678.19;4975964;28;19936;-76
2022/07/12 02:29:52;;;;;;;;;;;;;;;14.12;70.82;98678.84;4988475;28;20368;-76
2022/07/12 02:32:20;;;;;;;;;;;;;;;14.09;70.91;98679.47;5006378;28;20017;-75
2022/07/12 02:34:48;;;;;;;;;;;;;;;14.05;70.91;98681.19;4991440;28;19927;-76
2022/07/12 02:37:41;;;;;;;;;;;;;;;13.98;71.30;98677.31;4991315;28;20273;-76
2022/07/12 02:42:55;;;;;;;;;;;;;;;13.94;71.38;98676.34;4989525;28;19961;-76
2022/07/12 02:45:25;;;;;;;;;;;;;;;14.02;71.25;98683.78;4973344;28;19925;-76
2022/07/12 02:47:53;;;;;;;;;;;;;;;14.04;71.11;98678.78;4990900;28;19926;-76
2022/07/12 02:50:21;;;;;;;;;;;;;;;14.05;70.89;98683.94;4956633;28;20011;-76
2022/07/12 02:55:42;;;;;;;;;;;;;;;13.96;71.18;98680.38;4990332;28;20000;-76
2022/07/12 02:58:11;;;;;;;;;;;;;;;13.91;71.45;98683.25;5006018;28;19926;-76
2022/07/12 03:00:41;;;;;;;;;;;;;;;13.91;71.45;98676.97;4985893;28;19926;-75
2022/07/12 03:03:10;;;;;;;;;;;;;;;13.84;71.54;98685.59;5005372;28;19945;-76
2022/07/12 03:05:38;;;;;;;;;;;;;;;13.87;71.44;98682.25;4991592;28;20012;-75
2022/07/12 03:08:06;;;;;;;;;;;;;;;13.85;71.53;98682.56;4973039;28;20028;-76
2022/07/12 03:10:35;;;;;;;;;;;;;;;13.75;71.89;98682.03;4973082;28;19936;-76
2022/07/12 03:13:03;;;;;;;;;;;;;;;13.73;72.21;98678.78;5005790;28;20005;-76
2022/07/12 03:15:31;;;;;;;;;;;;;;;13.71;72.14;98689.25;4992744;28;20380;-76
2022/07/12 03:18:01;;;;;;;;;;;;;;;13.69;72.28;98691.47;4995222;28;19925;-76
2022/07/12 03:20:29;;;;;;;;;;;;;;;13.67;72.65;98688.25;5010005;28;19930;-76
2022/07/12 03:22:57;;;;;;;;;;;;;;;13.75;72.38;98691.03;4995217;28;19954;-76
2022/07/12 03:25:25;;;;;;;;;;;;;;;13.82;72.06;98694.13;4993929;28;20033;-76
2022/07/12 03:27:54;;;;;;;;;;;;;;;13.83;71.91;98692.19;4994217;28;20429;-76
2022/07/12 03:30:21;;;;;;;;;;;;;;;13.82;71.65;98696.84;4991891;28;20360;-76
2022/07/12 03:32:50;;;;;;;;;;;;;;;13.88;71.66;98695.59;4991467;28;19942;-76
2022/07/12 03:35:20;;;;;;;;;;;;;;;14.05;71.28;98696.78;4993064;28;19989;-75
2022/07/12 03:37:48;;;;;;;;;;;;;;;14.04;71.15;98695.19;4990155;28;20013;-76
2022/07/12 03:40:17;;;;;;;;;;;;;;;13.92;71.66;98697.72;4995498;28;20399;-76
2022/07/12 03:42:45;;;;;;;;;;;;;;;13.80;72.16;98692.84;5012961;28;20357;-76
2022/07/12 03:45:13;;;;;;;;;;;;;;;13.79;72.21;98696.66;4989497;28;20440;-75
2022/07/12 03:47:41;;;;;;;;;;;;;;;13.78;72.22;98695.84;4994597;28;19930;-76
2022/07/12 03:50:10;;;;;;;;;;;;;;;13.80;72.32;98698.28;4984088;28;20030;-76
2022/07/12 03:52:40;;;;;;;;;;;;;;;13.88;71.88;98700.25;4987362;28;20009;-76
2022/07/12 03:58:00;;;;;;;;;;;;;;;13.71;72.55;98705.63;4991930;28;20049;-76
2022/07/12 04:00:28;;;;;;;;;;;;;;;13.73;72.47;98708.84;5010758;28;20280;-75
2022/07/12 04:02:56;;;;;;;;;;;;;;;13.75;72.38;98707.41;4974093;28;20037;-76
2022/07/12 04:05:26;;;;;;;;;;;;;;;13.84;72.20;98715.66;4994017;28;19937;-76
2022/07/12 04:07:55;;;;;;;;;;;;;;;13.98;71.62;98715.56;4993082;28;20254;-76
2022/07/12 04:10:23;;;;;;;;;;;;;;;13.95;71.73;98719.72;4975177;28;19953;-75
2022/07/12 04:12:51;;;;;;;;;;;;;;;13.85;71.79;98711.81;5004207;28;19925;-75
2022/07/12 04:15:20;;;;;;;;;;;;;;;13.85;72.00;98718.09;4989577;28;19926;-75
2022/07/12 04:17:48;;;;;;;;;;;;;;;13.86;72.04;98721.63;4982476;28;19932;-75
2022/07/12 04:20:16;;;;;;;;;;;;;;;13.84;72.02;98715.66;4990658;28;19930;-75
2022/07/12 04:22:45;;;;;;;;;;;;;;;13.93;71.62;98711.03;4969899;28;20683;-76
2022/07/12 04:25:14;;;;;;;;;;;;;;;13.91;71.70;98721.50;4989375;28;19926;-76
2022/07/12 04:27:42;;;;;;;;;;;;;;;14.06;71.35;98723.81;4976132;28;21079;-76
2022/07/12 04:30:10;;;;;;;;;;;;;;;14.14;71.03;98723.03;5001126;28;20036;-76
2022/07/12 04:32:38;;;;;;;;;;;;;;;13.89;71.83;98729.97;4990825;28;19969;-76
2022/07/12 04:35:07;;;;;;;;;;;;;;;13.87;72.00;98725.97;4992156;28;19934;-76
2022/07/12 04:37:35;;;;;;;;;;;;;;;13.85;72.25;98729.00;4992946;28;19926;-86
2022/07/12 04:40:04;;;;;;;;;;;;;;;13.93;72.17;98738.34;5012042;28;20591;-78
2022/07/12 04:42:33;;;;;;;;;;;;;;;13.91;72.18;98732.41;4995940;28;20335;-91
2022/07/12 04:45:01;;;;;;;;;;;;;;;13.94;72.16;98737.22;4989916;28;19934;-85
2022/07/12 04:47:29;;;;;;;;;;;;;;;13.83;72.69;98733.16;5006924;28;19941;-86
2022/07/12 04:49:57;;;;;;;;;;;;;;;13.76;73.14;98727.34;4991476;28;19933;-85
2022/07/12 04:52:25;;;;;;;;;;;;;;;13.83;72.99;98742.16;4991118;28;19932;-85
2022/07/12 04:54:53;;;;;;;;;;;;;;;13.77;73.16;98732.47;4993739;28;19973;-86
2022/07/12 04:57:21;;;;;;;;;;;;;;;13.94;72.80;98742.69;4991142;28;19926;-86
2022/07/12 04:59:50;;;;;;;;;;;;;;;14.00;72.79;98738.72;4991191;28;20006;-80
2022/07/12 05:02:18;;;;;;;;;;;;;;;13.92;72.86;98747.69;4995075;28;19934;-83
2022/07/12 05:04:46;;;;;;;;;;;;;;;13.85;73.59;98739.13;4989810;28;20529;-80
2022/07/12 05:07:14;;;;;;;;;;;;;;;13.99;72.98;98741.75;4992249;28;19965;-81
2022/07/12 05:09:43;;;;;;;;;;;;;;;14.12;72.45;98741.69;4987297;28;19926;-83
2022/07/12 05:12:11;;;;;;;;;;;;;;;14.09;72.70;98745.03;4991760;28;19930;-83
2022/07/12 05:14:39;;;;;;;;;;;;;;;14.21;72.41;98749.09;4993243;28;19925;-77
2022/07/12 05:17:09;;;;;;;;;;;;;;;14.26;72.19;98751.69;4973414;28;20052;-78
2022/07/12 05:19:37;;;;;;;;;;;;;;;14.13;72.65;98756.16;4993584;28;19930;-78
2022/07/12 05:22:05;;;;;;;;;;;;;;;14.15;72.81;98756.63;4984277;28;19968;-77
2022/07/12 05:24:34;;;;;;;;;;;;;;;14.16;73.37;98760.97;5005312;28;20017;-78
2022/07/12 05:27:01;;;;;;;;;;;;;;;14.29;72.58;98759.28;4973456;28;20011;-76
2022/07/12 05:29:29;;;;;;;;;;;;;;;14.31;72.80;98765.22;4982829;28;19937;-79
2022/07/12 05:31:58;;;;;;;;;;;;;;;14.35;72.66;98763.47;5005250;28;19952;-80
2022/07/12 05:34:27;;;;;;;;;;;;;;;14.41;72.39;98768.50;4973089;28;19980;-81
2022/07/12 05:40:13;;;;;;;;;;;;;;;14.49;72.24;98763.41;4989646;28;19948;-79
2022/07/12 05:42:41;;;;;;;;;;;;;;;14.56;71.83;98755.56;5010853;28;20611;-78
2022/07/12 05:45:09;;;;;;;;;;;;;;;14.60;71.76;98754.59;4984689;28;20272;-79
2022/07/12 05:47:38;;;;;;;;;;;;;;;14.69;71.23;98762.81;4987089;28;20416;-78
2022/07/12 05:50:08;;;;;;;;;;;;;;;14.72;71.19;98767.66;4992002;28;20040;-79
2022/07/12 05:55:46;;;;;;;;;;;;;;;14.77;71.10;98766.72;5002415;28;20461;-79
2022/07/12 05:58:14;;;;;;;;;;;;;;;14.91;71.01;98761.91;4998553;28;19938;-79
2022/07/12 06:00:42;;;;;;;;;;;;;;;14.94;70.55;98769.50;5001473;28;19934;-79
2022/07/12 06:03:11;;;;;;;;;;;;;;;15.15;70.06;98773.22;4969407;28;19984;-76
2022/07/12 06:05:41;;;;;;;;;;;;;;;15.41;68.87;98766.97;4976898;28;19929;-78
2022/07/12 06:08:09;;;;;;;;;;;;;;;15.42;68.92;98765.84;4979186;28;19934;-79
2022/07/12 06:10:37;;;;;;;;;;;;;;;15.39;68.80;98766.47;4961832;28;19934;-78
2022/07/12 06:13:05;;;;;;;;;;;;;;;15.38;68.80;98762.94;4986839;28;19985;-78
2022/07/12 06:15:52;;;;;;;;;;;;;;;15.40;68.56;98776.31;4997708;28;19973;-78
2022/07/12 06:18:21;;;;;;;;;;;;;;;15.54;68.36;98776.94;5001301;28;19926;-78
2022/07/12 06:20:51;;;;;;;;;;;;;;;15.52;67.98;98784.69;4983435;28;19990;-78
2022/07/12 06:26:13;;;;;;;;;;;;;;;15.64;68.06;98773.91;4968693;28;21251;-78
2022/07/12 06:28:41;;;;;;;;;;;;;;;15.73;68.14;98778.59;4986649;28;20387;-78
2022/07/12 06:31:09;;;;;;;;;;;;;;;15.78;67.06;98778.44;4969709;28;19957;-78
2022/07/12 06:33:37;;;;;;;;;;;;;;;15.94;66.92;98782.28;4969855;28;20032;-78
2022/07/12 06:36:09;;;;;;;;;;;;;;;15.94;66.99;98782.28;4973038;28;20396;-79
2022/07/12 06:38:39;;;;;;;;;;;;;;;15.99;66.97;98776.63;4982852;28;19926;-79
2022/07/12 06:41:12;;;;;;;;;;;;;;;16.00;67.16;98788.38;4970167;28;19930;-78
2022/07/12 06:43:40;;;;;;;;;;;;;;;16.05;66.79;98790.97;4971002;28;19926;-79
2022/07/12 06:46:09;;;;;;;;;;;;;;;16.09;66.75;98794.66;4982195;28;19934;-79
2022/07/12 06:48:37;;;;;;;;;;;;;;;16.15;66.69;98796.09;4974366;28;20329;-78
2022/07/12 06:51:08;;;;;;;;;;;;;;;16.17;66.75;98793.81;4970930;28;19989;-78
2022/07/12 06:53:37;;;;;;;;;;;;;;;16.23;66.25;98800.72;4969162;28;19973;-78
2022/07/12 06:56:08;;;;;;;;;;;;;;;16.30;65.80;98798.31;4971191;28;19933;-79
2022/07/12 06:58:36;;;;;;;;;;;;;;;16.35;65.36;98798.13;4991805;28;21924;-79
2022/07/12 07:01:06;;;;;;;;;;;;;;;16.44;65.32;98792.59;4972014;28;20246;-78
2022/07/12 07:03:35;;;;;;;;;;;;;;;16.56;65.22;98803.69;4965343;28;19929;-78
2022/07/12 07:06:03;;;;;;;;;;;;;;;16.62;64.96;98807.06;4987748;28;19961;-78
2022/07/12 07:08:34;;;;;;;;;;;;;;;16.65;64.67;98804.47;4973638;28;19949;-79
2022/07/12 07:11:05;;;;;;;;;;;;;;;16.79;64.19;98798.78;4974559;28;20018;-79
2022/07/12 07:13:58;;;;;;;;;;;;;;;16.86;64.08;98803.75;4975033;28;19930;-78
2022/07/12 07:16:26;;;;;;;;;;;;;;;16.90;64.36;98799.22;4987986;28;19927;-79
2022/07/12 07:18:53;;;;;;;;;;;;;;;16.89;63.86;98812.16;4977682;28;20016;-80
2022/07/12 07:21:22;;;;;;;;;;;;;;;16.91;63.84;98809.84;4970032;28;19990;-79
2022/07/12 07:23:50;;;;;;;;;;;;;;;17.09;63.59;98813.31;4964630;28;20310;-78
2022/07/12 07:26:19;;;;;;;;;;;;;;;17.09;63.40;98810.56;4982691;28;20261;-77
2022/07/12 07:31:34;;;;;;;;;;;;;;;17.35;62.60;98809.59;4963341;28;19963;-77
2022/07/12 07:34:02;;;;;;;;;;;;;;;17.38;62.24;98809.75;4982604;28;19936;-77
2022/07/12 07:36:30;;;;;;;;;;;;;;;17.33;62.38;98806.38;4976144;28;20407;-77
2022/07/12 07:38:58;;;;;;;;;;;;;;;17.37;61.43;98810.88;4978711;28;19999;-78
2022/07/12 07:41:27;;;;;;;;;;;;;;;17.47;61.30;98809.66;4992061;28;19933;-77
2022/07/12 07:43:55;;;;;;;;;;;;;;;17.64;61.10;98817.78;4977714;28;19976;-77
2022/07/12 07:46:23;;;;;;;;;;;;;;;17.60;61.16;98819.59;4980013;28;20362;-76
2022/07/12 07:48:51;;;;;;;;;;;;;;;17.64;60.79;98828.78;4974007;28;20029;-76
2022/07/12 07:51:19;;;;;;;;;;;;;;;17.75;60.58;98820.97;4971456;28;20029;-76
2022/07/12 07:53:47;;;;;;;;;;;;;;;18.10;59.57;98817.88;4970915;28;20052;-76
2022/07/12 07:56:15;;;;;;;;;;;;;;;18.07;59.49;98824.88;4969843;28;19976;-76
2022/07/12 07:58:44;;;;;;;;;;;;;;;18.04;59.60;98823.59;4971972;28;19976;-77
2022/07/12 08:01:12;;;;;;;;;;;;;;;17.97;59.48;98823.34;4973478;28;19933;-78
2022/07/12 08:03:40;;;;;;;;;;;;;;;18.12;58.56;98821.13;4970924;28;19966;-83
2022/07/12 08:06:08;;;;;;;;;;;;;;;18.17;58.54;98823.66;4971391;28;19932;-78
2022/07/12 08:08:36;;;;;;;;;;;;;;;18.17;58.32;98823.66;4959408;28;19930;-77
2022/07/12 08:11:49;;;;;;;;;;;;;;;18.28;58.79;98831.13;4974936;28;20075;-77
2022/07/12 08:14:19;;;;;;;;;;;;;;;18.40;58.26;98832.31;4975724;28;19961;-78
2022/07/12 08:16:46;;;;;;;;;;;;;;;18.51;58.17;98822.47;4976074;28;20313;-78
2022/07/12 08:19:14;;;;;;;;;;;;;;;18.49;56.65;98824.75;4969180;28;19930;-76
2022/07/12 08:21:42;;;;;;;;;;;;;;;18.42;56.20;98821.75;4967979;28;20374;-76
2022/07/12 08:24:11;;;;;;;;;;;;;;;18.49;56.87;98819.25;4972762;28;20357;-76
2022/07/12 08:26:39;;;;;;;;;;;;;;;18.30;57.09;98817.81;4973937;28;19926;-76
2022/07/12 08:29:07;;;;;;;;;;;;;;;18.59;56.61;98814.13;4972610;28;20011;-76
2022/07/12 08:31:37;;;;;;;;;;;;;;;18.55;55.48;98807.69;4971405;28;19968;-76
2022/07/12 08:34:05;;;;;;;;;;;;;;;18.51;55.76;98812.25;4978456;28;19925;-76
2022/07/12 08:36:32;;;;;;;;;;;;;;;18.41;55.76;98807.19;4973432;28;19934;-76
2022/07/12 08:39:01;;;;;;;;;;;;;;;18.25;55.12;98804.28;4987944;28;20091;-75
2022/07/12 08:41:29;;;;;;;;;;;;;;;18.48;55.59;98806.63;4973936;28;20366;-76
2022/07/12 08:43:56;;;;;;;;;;;;;;;18.62;55.41;98801.59;4972283;28;19969;-76
2022/07/12 08:46:24;;;;;;;;;;;;;;;18.90;54.46;98809.22;5001896;28;20450;-76
2022/07/12 08:48:54;;;;;;;;;;;;;;;18.97;54.94;98803.94;4970784;28;19926;-76
2022/07/12 08:51:22;;;;;;;;;;;;;;;19.00;54.93;98806.81;4971155;28;19930;-76
2022/07/12 08:53:54;;;;;;;;;;;;;;;19.15;53.41;98808.06;4968826;28;19926;-75
2022/07/12 08:56:31;;;;;;;;;;;;;;;19.18;52.59;98807.38;4971616;28;19926;-75
2022/07/12 08:59:15;;;;;;;;;;;;;;;19.29;52.74;98810.47;4971647;28;19985;-76
2022/07/12 09:01:44;;;;;;;;;;;;;;;19.18;51.98;98810.13;4972699;28;20302;-77
2022/07/12 09:04:17;;;;;;;;;;;;;;;19.26;52.43;98816.66;4973111;28;19926;-78
2022/07/12 09:09:37;;;;;;;;;;;;;;;19.36;52.39;98814.22;5006485;28;20362;-80
2022/07/12 09:12:05;;;;;;;;;;;;;;;19.53;51.07;98818.66;4974124;28;19926;-80
2022/07/12 09:14:33;;;;;;;;;;;;;;;19.35;52.16;98822.84;4973162;28;20338;-80
2022/07/12 09:17:09;;;;;;;;;;;;;;;19.36;52.80;98818.94;5006694;28;20294;-80
2022/07/12 09:19:38;;;;;;;;;;;;;;;19.45;50.02;98822.38;4973537;28;19933;-77
2022/07/12 09:22:14;;;;;;;;;;;;;;;19.52;51.82;98819.00;4998718;28;19949;-76
2022/07/12 09:24:42;;;;;;;;;;;;;;;19.54;50.97;98823.00;4973164;28;19948;-76
2022/07/12 09:27:10;;;;;;;;;;;;;;;19.39;51.52;98818.25;4970181;28;19962;-76
2022/07/12 09:29:49;;;;;;;;;;;;;;;19.35;51.04;98823.66;4968800;28;19949;-76
2022/07/12 09:37:55;;;;;;;;;;;;;;;19.83;50.00;98821.13;4968308;28;19934;-77
2022/07/12 09:40:24;;;;;;;;;;;;;;;19.83;49.40;98816.44;4975776;28;19952;-76
2022/07/12 09:42:51;;;;;;;;;;;;;;;19.81;49.93;98817.91;4982206;28;19958;-76
2022/07/12 09:45:19;;;;;;;;;;;;;;;19.92;49.15;98812.69;4981985;28;19926;-79
2022/07/12 09:47:47;;;;;;;;;;;;;;;19.77;49.86;98817.03;4971310;28;19993;-76
2022/07/12 09:50:16;;;;;;;;;;;;;;;19.70;49.46;98812.09;4972063;28;19977;-76
2022/07/12 09:52:44;;;;;;;;;;;;;;;19.56;49.27;98811.66;4971534;28;20420;-76
2022/07/12 09:55:18;;;;;;;;;;;;;;;19.54;49.43;98808.44;4968824;28;19958;-76
2022/07/12 09:57:47;;;;;;;;;;;;;;;19.61;48.43;98808.69;4971330;28;19934;-76
2022/07/12 10:00:17;;;;;;;;;;;;;;;19.88;47.50;98799.63;4996213;28;19926;-76
2022/07/12 10:02:45;;;;;;;;;;;;;;;19.96;50.05;98802.56;4989871;28;19981;-76
2022/07/12 10:05:13;;;;;;;;;;;;;;;20.22;47.15;98797.38;4970822;28;19926;-77
2022/07/12 10:07:42;;;;;;;;;;;;;;;20.30;47.65;98803.91;4970189;28;19925;-76
2022/07/12 10:10:11;;;;;;;;;;;;;;;20.24;47.68;98800.63;4985286;28;20372;-78
2022/07/12 10:12:40;;;;;;;;;;;;;;;20.34;48.30;98808.34;4990026;28;20021;-77
2022/07/12 10:18:18;;;;;;;;;;;;;;;20.38;46.63;98802.94;4991321;28;19926;-76
2022/07/12 10:20:46;;;;;;;;;;;;;;;20.45;47.32;98803.09;4989378;28;19926;-76
2022/07/12 10:23:30;;;;;;;;;;;;;;;20.63;47.22;98820.19;4989927;28;19930;-76
2022/07/12 10:25:59;;;;;;;;;;;;;;;20.55;46.73;98805.38;4985779;28;20017;-75
2022/07/12 10:28:42;;;;;;;;;;;;;;;20.44;45.99;98809.00;4988207;28;19980;-75
2022/07/12 10:31:10;;;;;;;;;;;;;;;20.48;46.55;98796.13;4985803;28;20486;-75
2022/07/12 10:33:38;;;;;;;;;;;;;;;20.48;46.24;98798.88;4989735;28;19979;-79
2022/07/12 10:36:08;;;;;;;;;;;;;;;20.53;45.75;98784.81;4984742;28;19926;-74
2022/07/12 10:38:41;;;;;;;;;;;;;;;20.66;46.23;98781.59;4987435;28;20384;-74
2022/07/12 10:41:19;;;;;;;;;;;;;;;20.64;45.92;98785.88;4984566;28;19952;-76
2022/07/12 10:44:05;;;;;;;;;;;;;;;20.63;45.24;98782.31;4986275;28;19934;-76
2022/07/12 10:46:34;;;;;;;;;;;;;;;20.50;47.80;98788.28;4987598;28;19926;-75
2022/07/12 10:49:21;;;;;;;;;;;;;;;20.38;46.31;98781.66;4989792;28;19957;-75
2022/07/12 10:52:03;;;;;;;;;;;;;;;20.50;46.41;98782.75;4990059;28;20403;-75
2022/07/12 10:54:35;;;;;;;;;;;;;;;20.64;46.46;98780.34;4986746;28;20368;-76
2022/07/12 10:57:05;;;;;;;;;;;;;;;20.82;47.43;98778.03;4987358;28;19933;-75
2022/07/12 10:59:34;;;;;;;;;;;;;;;20.82;45.02;98778.81;4969217;28;20064;-75
2022/07/12 11:02:02;;;;;;;;;;;;;;;20.84;44.11;98782.03;4989908;28;20028;-75
2022/07/12 11:05:04;;;;;;;;;;;;;;;20.86;44.57;98787.19;4986305;28;19937;-75
2022/07/12 11:07:32;;;;;;;;;;;;;;;21.12;46.02;98792.16;4988936;28;19934;-75
2022/07/12 11:10:00;;;;;;;;;;;;;;;20.97;44.54;98787.44;4967619;28;19996;-75
2022/07/12 11:12:30;;;;;;;;;;;;;;;21.01;43.24;98780.06;4971236;28;19926;-75
2022/07/12 11:14:59;;;;;;;;;;;;;;;20.98;42.22;98780.75;4970442;28;19926;-75
2022/07/12 11:17:27;;;;;;;;;;;;;;;21.03;43.24;98777.72;4983209;28;19945;-75
2022/07/12 11:20:06;;;;;;;;;;;;;;;21.15;44.27;98769.34;4953257;28;19926;-75
2022/07/12 11:22:34;;;;;;;;;;;;;;;21.05;43.37;98769.91;4980442;28;19926;-75
2022/07/12 11:25:02;;;;;;;;;;;;;;;21.20;45.18;98769.06;4976514;28;20373;-75
2022/07/12 11:27:36;;;;;;;;;;;;;;;21.12;43.89;98770.03;4954409;28;19933;-75
2022/07/12 11:30:05;;;;;;;;;;;;;;;21.17;43.91;98776.09;4976288;28;19934;-75
2022/07/12 11:32:36;;;;;;;;;;;;;;;21.26;42.58;98775.09;4948060;28;20276;-75
2022/07/12 11:35:05;;;;;;;;;;;;;;;21.21;42.30;98778.94;4970781;28;19930;-75
2022/07/12 11:37:33;;;;;;;;;;;;;;;21.41;42.08;98774.25;4978148;28;19938;-75
2022/07/12 11:40:01;;;;;;;;;;;;;;;21.33;42.59;98767.78;4989134;28;19933;-75
2022/07/12 11:42:28;;;;;;;;;;;;;;;21.34;42.31;98769.38;4979107;28;19965;-75
2022/07/12 11:44:58;;;;;;;;;;;;;;;21.42;43.92;98773.91;4988396;28;19926;-75
2022/07/12 11:47:25;;;;;;;;;;;;;;;21.31;43.29;98764.59;4974316;28;19926;-75
2022/07/12 11:49:53;;;;;;;;;;;;;;;21.29;42.77;98760.56;4973902;28;19966;-76
2022/07/12 11:52:22;;;;;;;;;;;;;;;21.30;42.59;98759.41;4984446;28;19934;-75
2022/07/12 11:54:50;;;;;;;;;;;;;;;21.30;42.97;98767.69;4977036;28;19926;-75
2022/07/12 11:57:20;;;;;;;;;;;;;;;21.38;43.59;98767.50;4972453;28;19926;-75
2022/07/12 11:59:48;;;;;;;;;;;;;;;21.35;44.22;98762.69;4975681;28;20439;-76
2022/07/12 12:02:23;;;;;;;;;;;;;;;21.47;43.72;98766.50;4977695;28;20270;-76
2022/07/12 12:04:52;;;;;;;;;;;;;;;21.54;43.63;98763.88;4981098;28;19926;-75
2022/07/12 12:07:21;;;;;;;;;;;;;;;21.58;43.39;98756.47;4976266;28;19926;-76
2022/07/12 12:09:59;;;;;;;;;;;;;;;21.56;43.29;98772.59;4993067;28;20020;-75
2022/07/12 12:12:27;;;;;;;;;;;;;;;21.68;43.17;98769.72;4992683;28;19930;-75
2022/07/12 12:14:54;;;;;;;;;;;;;;;21.59;42.91;98769.91;4994541;28;19985;-76
2022/07/12 12:17:24;;;;;;;;;;;;;;;21.51;41.94;98764.59;4994667;28;19948;-76
2022/07/12 12:19:51;;;;;;;;;;;;;;;21.68;41.93;98764.19;4988744;28;19953;-76
2022/07/12 12:22:29;;;;;;;;;;;;;;;21.71;41.49;98769.78;4990677;28;19976;-76
2022/07/12 12:24:58;;;;;;;;;;;;;;;21.62;40.96;98762.84;5008839;28;19933;-76
2022/07/12 12:27:26;;;;;;;;;;;;;;;21.75;41.76;98761.56;4992845;28;19933;-75
2022/07/12 12:29:54;;;;;;;;;;;;;;;21.78;42.23;98755.28;4989971;28;20487;-76
2022/07/12 12:32:30;;;;;;;;;;;;;;;22.11;38.65;98748.44;4990649;28;19933;-75
2022/07/12 12:35:08;;;;;;;;;;;;;;;22.01;38.93;98743.47;4974969;28;19926;-75
2022/07/12 12:37:36;;;;;;;;;;;;;;;22.16;39.64;98737.06;4993185;28;19973;-76
2022/07/12 12:40:04;;;;;;;;;;;;;;;22.08;40.98;98740.84;4992849;28;19932;-76
2022/07/12 12:42:32;;;;;;;;;;;;;;;22.18;39.83;98729.97;4991639;28;19973;-75
2022/07/12 12:45:00;;;;;;;;;;;;;;;22.31;39.57;98740.88;4975445;28;19974;-76
2022/07/12 12:47:34;;;;;;;;;;;;;;;22.33;39.36;98735.78;4992840;28;20396;-76
2022/07/12 12:50:03;;;;;;;;;;;;;;;22.22;40.36;98739.16;4989460;28;20036;-75
2022/07/12 12:52:32;;;;;;;;;;;;;;;22.55;39.08;98739.69;4993123;28;19949;-75
2022/07/12 12:55:00;;;;;;;;;;;;;;;22.22;41.37;98741.94;4994231;28;20383;-75
2022/07/12 12:57:28;;;;;;;;;;;;;;;22.14;41.54;98729.13;4992379;28;20007;-75
2022/07/12 12:59:56;;;;;;;;;;;;;;;22.41;39.08;98724.44;4991289;28;19925;-76
2022/07/12 13:02:24;;;;;;;;;;;;;;;22.22;41.11;98732.81;4992935;28;20045;-76
2022/07/12 13:04:54;;;;;;;;;;;;;;;22.46;38.24;98728.88;4992393;28;19948;-75
2022/07/12 13:07:22;;;;;;;;;;;;;;;22.37;40.25;98728.31;4991104;28;20257;-76
2022/07/12 13:09:51;;;;;;;;;;;;;;;22.16;41.21;98724.03;4991842;28;19926;-76
2022/07/12 13:12:18;;;;;;;;;;;;;;;22.18;40.02;98734.72;4994295;28;19926;-75
2022/07/12 13:14:46;;;;;;;;;;;;;;;22.37;40.02;98731.91;4996795;28;19972;-76
2022/07/12 13:17:14;;;;;;;;;;;;;;;22.51;40.28;98727.75;4973078;28;19956;-75
2022/07/12 13:19:43;;;;;;;;;;;;;;;22.28;41.38;98731.34;4990695;28;19932;-75
2022/07/12 13:22:12;;;;;;;;;;;;;;;22.57;38.90;98724.31;4989384;28;19992;-75
2022/07/12 13:27:33;;;;;;;;;;;;;;;22.35;39.97;98733.44;4986825;28;19941;-75
2022/07/12 13:30:01;;;;;;;;;;;;;;;22.40;40.06;98733.13;5000864;28;20004;-75
2022/07/12 13:32:29;;;;;;;;;;;;;;;22.44;39.84;98723.72;4989929;28;19926;-75
2022/07/12 13:34:57;;;;;;;;;;;;;;;22.65;39.41;98728.00;4989259;28;20357;-75
2022/07/12 13:37:49;;;;;;;;;;;;;;;22.54;39.88;98732.56;4991739;28;19937;-75